Time;durP1;ratioP1;P1;durP2;ratioP2;P2;SDS_P1;SDS_P2;PMS_P1;PMS_P2;Temp;Humidity;BMP_temperature;BMP_pressure;BME280_temperature;BME280_humidity;BME280_pressure;Samples;Min_cycle;Max_cycle;Signal;HPM_P1;HPM_P2
2022/01/08 04:37:05;;;;;;;8.25;1.88;;;;;;;1.69;100.00;99761.28;5499607;24;20027;-84
2022/01/08 07:40:28;;;;;;;16.52;1.50;;;;;;;1.75;100.00;99655.34;5790056;24;20061;-76
2022/01/08 08:16:30;;;;;;;11.10;1.80;;;;;;;1.78;100.00;99647.06;5090136;24;20063;-81
2022/01/08 08:21:31;;;;;;;11.63;1.83;;;;;;;1.12;100.00;99540.38;4903849;24;20063;-80
2022/01/08 08:23:57;;;;;;;10.80;1.70;;;;;;;2.78;100.00;99798.66;4930712;24;20042;-79
2022/01/08 08:26:22;;;;;;;11.75;1.77;;;;;;;2.74;100.00;99786.69;5117503;24;20065;-82
2022/01/08 08:28:48;;;;;;;13.00;2.00;;;;;;;2.39;100.00;99726.13;4868374;24;20039;-81
2022/01/08 08:31:13;;;;;;;12.40;1.92;;;;;;;2.57;100.00;99761.22;4802412;30;20031;-81
2022/01/08 08:33:39;;;;;;;12.55;2.00;;;;;;;2.73;100.00;99777.09;4797273;29;20012;-80
2022/01/08 08:36:05;;;;;;;13.50;2.25;;;;;;;2.77;100.00;99780.22;4797255;29;20051;-80
2022/01/08 08:38:30;;;;;;;13.15;2.47;;;;;;;2.48;100.00;99728.56;4790056;30;20067;-79
2022/01/08 08:40:56;;;;;;;14.18;2.20;;;;;;;2.66;100.00;99772.66;4790969;30;20517;-80
2022/01/08 08:43:21;;;;;;;11.82;2.40;;;;;;;2.66;100.00;99773.47;4798133;30;20051;-81
2022/01/08 08:45:47;;;;;;;10.88;2.40;;;;;;;2.71;100.00;99773.75;4799112;29;20463;-81
2022/01/08 08:48:12;;;;;;;11.02;2.10;;;;;;;2.51;100.00;99749.44;4792962;30;20039;-80
2022/01/08 08:50:38;;;;;;;12.55;2.40;;;;;;;2.67;100.00;99769.81;4789734;30;20035;-80
2022/01/08 08:53:04;;;;;;;10.73;2.22;;;;;;;2.53;100.00;99770.53;4794626;29;20082;-80
2022/01/08 08:55:29;;;;;;;11.00;2.08;;;;;;;2.48;100.00;99754.28;4794188;29;20027;-79
2022/01/08 08:57:55;;;;;;;8.55;2.50;;;;;;;2.50;100.00;99765.56;4791340;30;20123;-81
2022/01/08 09:00:20;;;;;;;10.23;1.92;;;;;;;2.41;100.00;99762.09;4792233;29;20047;-81
2022/01/08 09:02:46;;;;;;;11.25;2.30;;;;;;;2.35;100.00;99761.00;4765870;30;20138;-81
2022/01/08 09:05:11;;;;;;;7.30;2.13;;;;;;;2.31;100.00;99754.34;4795321;29;20514;-80
2022/01/08 09:07:38;;;;;;;10.77;2.10;;;;;;;2.31;100.00;99758.84;4795210;30;20124;-77
2022/01/08 09:10:05;;;;;;;8.23;2.30;;;;;;;1.09;100.00;99567.25;5021436;24;20051;-82
2022/01/08 09:12:31;;;;;;;6.35;2.05;;;;;;;2.27;100.00;99752.22;4807879;29;20394;-81
2022/01/08 09:14:56;;;;;;;10.85;2.20;;;;;;;2.19;100.00;99741.63;4812758;29;20011;-83
2022/01/08 09:17:24;;;;;;;8.93;2.75;;;;;;;2.19;100.00;99750.44;4801091;29;20008;-82
2022/01/08 09:19:50;;;;;;;7.10;2.70;;;;;;;1.87;100.00;99712.34;4760569;30;20034;-82
2022/01/08 09:22:15;;;;;;;6.68;2.30;;;;;;;2.02;100.00;99735.53;4798067;29;20060;-78
2022/01/08 09:24:41;;;;;;;12.05;2.60;;;;;;;0.67;100.00;99547.09;5109931;24;21119;-76
2022/01/08 09:27:07;;;;;;;6.72;2.35;;;;;;;0.26;100.00;99495.97;4792285;29;20044;-82
2022/01/08 09:29:33;;;;;;;9.13;2.30;;;;;;;0.57;100.00;99545.59;4791502;30;20079;-79
2022/01/08 09:31:59;;;;;;;6.07;2.08;;;;;;;-0.08;100.00;99483.69;4789590;30;20046;-80
2022/01/08 09:34:25;;;;;;;9.30;2.65;;;;;;;-0.01;100.00;99468.00;4791292;29;20051;-82
2022/01/08 09:36:51;;;;;;;7.03;2.15;;;;;;;1.62;100.00;99729.31;4794253;29;20083;-82
2022/01/08 09:39:17;;;;;;;5.97;1.95;;;;;;;0.61;100.00;99576.03;4792564;30;20036;-82
2022/01/08 09:41:42;;;;;;;7.80;2.28;;;;;;;0.63;100.00;99580.19;4792787;29;20032;-82
2022/01/08 09:44:09;;;;;;;7.75;2.22;;;;;;;0.42;100.00;99551.53;4807224;29;20040;-81
2022/01/08 09:46:34;;;;;;;4.38;2.10;;;;;;;0.11;100.00;99503.72;4806479;29;20028;-82
2022/01/08 09:49:00;;;;;;;3.72;1.92;;;;;;;-0.13;100.00;99475.44;4807987;29;20060;-81
2022/01/08 09:51:26;;;;;;;2.85;1.80;;;;;;;0.31;100.00;99545.75;4792714;30;20015;-81
2022/01/08 09:53:52;;;;;;;4.15;1.40;;;;;;;0.26;100.00;99551.50;4806970;30;20020;-82
2022/01/08 09:56:18;;;;;;;4.07;1.60;;;;;;;1.27;100.00;99693.41;4789691;30;20008;-82
2022/01/08 09:58:44;;;;;;;4.45;1.88;;;;;;;0.81;100.00;99640.09;4790982;30;20023;-81
2022/01/08 10:01:26;;;;;;;5.22;1.90;;;;;;;1.24;100.00;99701.69;4788446;30;20031;-81
2022/01/08 10:03:52;;;;;;;3.75;1.90;;;;;;;0.06;100.00;99529.00;4805320;29;20073;-81
2022/01/08 10:06:25;;;;;;;3.67;1.50;;;;;;;-0.13;100.00;99501.03;4791733;30;20039;-82
2022/01/08 10:08:52;;;;;;;4.15;1.65;;;;;;;-0.20;100.00;99455.91;4789241;30;20032;-81
2022/01/08 10:11:19;;;;;;;2.25;1.00;;;;;;;0.38;100.00;99559.97;4790618;29;20142;-80
2022/01/08 10:13:47;;;;;;;3.20;1.40;;;;;;;-0.40;100.00;99425.47;4780050;30;20023;-80
2022/01/08 10:19:15;;;;;;;2.72;1.13;;;;;;;1.00;100.00;99638.94;4779046;30;20039;-80
2022/01/08 10:21:43;;;;;;;3.15;1.08;;;;;;;1.07;100.00;99656.66;4777844;30;20043;-80
2022/01/08 10:24:10;;;;;;;2.38;1.27;;;;;;;1.13;100.00;99653.34;4779120;30;20048;-80
2022/01/08 10:26:38;;;;;;;3.50;1.52;;;;;;;1.28;100.00;99645.53;4781922;30;20070;-80
2022/01/08 10:29:12;;;;;;;2.47;1.08;;;;;;;1.26;100.00;99641.38;4795210;30;20132;-81
2022/01/08 10:31:50;;;;;;;2.47;1.35;;;;;;;0.96;100.00;99588.13;4780625;30;20023;-80
2022/01/08 10:34:27;;;;;;;2.72;1.67;;;;;;;1.30;100.00;99645.38;4773321;30;20031;-82
2022/01/08 10:37:06;;;;;;;2.80;1.10;;;;;;;1.27;100.00;99643.88;4777969;30;20027;-80
2022/01/08 10:39:39;;;;;;;2.28;0.90;;;;;;;1.34;100.00;99651.97;4773716;30;20360;-79
2022/01/08 10:42:12;;;;;;;4.70;1.10;;;;;;;1.37;100.00;99630.44;4765618;30;20125;-80
2022/01/08 10:44:39;;;;;;;5.00;1.30;;;;;;;1.33;100.00;99624.66;4770801;30;20024;-79
2022/01/08 10:47:13;;;;;;;1.40;0.60;;;;;;;1.35;100.00;99635.06;4769218;30;20181;-80
2022/01/08 11:02:34;;;;;;;1.10;0.90;;;;;;;-0.17;100.00;99383.38;5423955;24;20035;-83
2022/01/08 17:13:31;;;;;;;4.93;3.10;;;;;;;1.49;100.00;99662.72;5505436;24;20065;-80
2022/01/08 17:15:56;;;;;;;4.10;3.05;;;;;;;1.38;100.00;99655.94;4743796;30;20071;-80
2022/01/08 17:18:22;;;;;;;3.60;2.58;;;;;;;1.40;100.00;99648.66;4751175;30;20036;-79
2022/01/08 17:20:48;;;;;;;3.95;3.10;;;;;;;1.31;100.00;99636.41;4738628;30;20040;-80
2022/01/08 17:23:14;;;;;;;3.67;2.63;;;;;;;1.36;100.00;99640.22;4737405;30;20028;-80
2022/01/08 17:25:39;;;;;;;22.52;15.82;;;;;;;1.45;100.00;99656.09;4720759;30;20033;-81
2022/01/08 17:28:05;;;;;;;40.38;32.45;;;;;;;1.40;100.00;99654.78;4735107;30;20075;-80
2022/01/08 17:30:31;;;;;;;8.18;7.13;;;;;;;1.26;100.00;99639.59;4737672;30;20047;-79
2022/01/08 17:32:57;;;;;;;4.55;3.47;;;;;;;1.22;100.00;99630.28;4756004;30;20040;-79
2022/01/08 17:35:22;;;;;;;6.00;4.95;;;;;;;1.17;100.00;99627.34;4742716;30;20032;-79
2022/01/08 17:37:48;;;;;;;3.15;2.85;;;;;;;1.26;100.00;99642.22;4750468;30;20051;-79
2022/01/08 17:40:13;;;;;;;3.30;2.25;;;;;;;1.26;100.00;99642.22;4755257;30;20032;-82
2022/01/08 17:42:39;;;;;;;3.70;3.05;;;;;;;1.32;100.00;99657.44;4756556;30;20052;-80
2022/01/08 17:45:06;;;;;;;17.02;12.20;;;;;;;1.26;100.00;99638.72;5095377;24;20072;-79
2022/01/08 17:47:32;;;;;;;25.65;19.42;;;;;;;1.32;100.00;99649.47;4750210;30;20032;-80
2022/01/08 17:49:58;;;;;;;19.65;15.48;;;;;;;1.37;100.00;99663.06;4764596;30;20040;-79
2022/01/08 17:52:23;;;;;;;85.68;71.55;;;;;;;1.37;100.00;99665.72;4738709;30;20436;-80
2022/01/08 17:54:48;;;;;;;4.00;3.17;;;;;;;1.31;100.00;99650.50;4735053;30;20045;-78
2022/01/08 17:57:14;;;;;;;19.92;17.45;;;;;;;1.49;100.00;99678.63;4732184;30;20036;-78
2022/01/08 17:59:43;;;;;;;7.38;6.07;;;;;;;1.54;100.00;99684.25;4734517;30;20037;-78
2022/01/08 18:02:10;;;;;;;6.00;5.40;;;;;;;1.58;100.00;99682.91;4734902;30;20036;-78
2022/01/08 18:04:35;;;;;;;4.90;3.92;;;;;;;1.50;100.00;99667.88;4735086;30;20082;-79
2022/01/08 18:07:02;;;;;;;4.97;4.20;;;;;;;1.65;100.00;99682.06;4736507;30;20131;-78
2022/01/08 18:09:27;;;;;;;3.92;3.53;;;;;;;1.71;100.00;99682.41;4749931;30;20524;-78
2022/01/08 18:11:53;;;;;;;3.92;3.17;;;;;;;1.58;100.00;99651.09;4737792;30;20044;-77
2022/01/08 18:14:18;;;;;;;5.65;3.80;;;;;;;1.71;100.00;99677.09;4736630;30;20033;-78
2022/01/08 18:16:43;;;;;;;4.65;3.90;;;;;;;1.62;100.00;99657.72;4733190;30;20043;-79
2022/01/08 18:19:09;;;;;;;7.85;5.15;;;;;;;1.75;100.00;99679.22;4720130;30;20052;-78
2022/01/08 18:21:34;;;;;;;6.22;4.70;;;;;;;1.61;100.00;99656.91;4738007;30;20037;-79
2022/01/08 18:24:02;;;;;;;3.20;2.33;;;;;;;1.42;100.00;99654.59;4741367;30;20211;-80
2022/01/08 18:26:28;;;;;;;3.80;2.70;;;;;;;1.31;100.00;99650.50;4738874;30;20050;-80
2022/01/08 18:28:54;;;;;;;4.22;3.03;;;;;;;1.45;100.00;99648.97;4752646;30;20027;-82
2022/01/08 18:31:19;;;;;;;4.20;2.90;;;;;;;1.55;100.00;99664.69;4745438;30;20040;-79
2022/01/08 18:33:45;;;;;;;3.85;2.70;;;;;;;1.61;100.00;99662.19;4742451;30;20037;-81
2022/01/08 18:36:11;;;;;;;3.88;2.28;;;;;;;1.59;100.00;99652.75;4736982;30;20046;-79
2022/01/08 18:38:37;;;;;;;4.35;2.92;;;;;;;1.62;100.00;99663.88;4729405;30;20013;-80
2022/01/08 18:41:03;;;;;;;2.88;2.17;;;;;;;1.61;100.00;99661.38;4748270;30;20037;-80
2022/01/08 18:43:29;;;;;;;1.15;1.05;;;;;;;1.39;100.00;99649.63;4746934;30;20033;-81
2022/01/08 18:45:55;;;;;;;1.95;1.48;;;;;;;1.39;100.00;99647.84;4743044;30;20053;-79
2022/01/08 18:48:21;;;;;;;2.45;1.60;;;;;;;1.43;100.00;99658.09;4740343;30;20044;-79
2022/01/08 18:50:46;;;;;;;2.45;2.10;;;;;;;1.38;100.00;99659.41;4745521;30;20090;-79
2022/01/08 18:53:13;;;;;;;2.55;2.20;;;;;;;1.29;100.00;99644.56;4732733;30;20044;-79
2022/01/08 18:55:38;;;;;;;3.67;2.17;;;;;;;1.24;100.00;99628.31;4726327;30;20112;-79
2022/01/08 18:58:04;;;;;;;3.40;2.13;;;;;;;1.37;100.00;99657.78;4733347;30;20044;-79
2022/01/08 19:00:30;;;;;;;2.85;2.40;;;;;;;1.16;100.00;99631.81;4730760;30;20124;-79
2022/01/08 19:02:55;;;;;;;3.42;2.90;;;;;;;1.28;100.00;99655.31;4732728;30;20468;-78
2022/01/08 19:05:21;;;;;;;3.85;2.97;;;;;;;1.16;100.00;99631.81;4743165;30;20041;-80
2022/01/08 19:07:46;;;;;;;3.33;2.53;;;;;;;1.28;100.00;99656.13;4766141;30;20044;-80
2022/01/08 19:10:13;;;;;;;3.30;2.63;;;;;;;1.24;100.00;99657.47;4727300;30;20206;-81
2022/01/08 19:12:39;;;;;;;4.75;2.97;;;;;;;1.07;100.00;99638.09;4742262;30;20044;-80
2022/01/08 19:15:05;;;;;;;4.25;2.90;;;;;;;1.25;100.00;99650.34;4754027;30;20033;-78
2022/01/08 19:17:31;;;;;;;3.22;2.90;;;;;;;1.15;100.00;99639.91;4744402;30;20125;-79
2022/01/08 19:19:57;;;;;;;4.60;2.92;;;;;;;1.10;100.00;99637.78;4742935;30;20067;-80
2022/01/08 19:22:22;;;;;;;3.63;3.20;;;;;;;1.05;100.00;99642.72;4741066;30;20135;-79
2022/01/08 19:24:48;;;;;;;3.22;2.92;;;;;;;1.12;100.00;99656.13;4742141;30;20076;-78
2022/01/08 19:27:14;;;;;;;3.83;3.17;;;;;;;1.11;100.00;99651.84;4742820;30;20109;-81
2022/01/08 19:29:44;;;;;;;3.50;3.20;;;;;;;1.07;100.00;99658.47;4753747;30;20045;-80
2022/01/08 19:32:14;;;;;;;3.83;3.10;;;;;;;1.11;100.00;99665.09;4749602;30;20033;-82
2022/01/08 19:34:40;;;;;;;3.55;3.10;;;;;;;1.04;100.00;99654.31;4743632;30;20055;-81
2022/01/08 19:37:05;;;;;;;5.68;3.70;;;;;;;0.93;100.00;99631.66;4762506;30;20041;-79
2022/01/08 19:39:31;;;;;;;4.00;3.55;;;;;;;1.08;100.00;99668.06;4736806;30;20128;-79
2022/01/08 19:42:02;;;;;;;4.97;3.17;;;;;;;0.87;100.00;99648.19;4737252;30;20495;-79
2022/01/08 19:44:27;;;;;;;2.60;2.40;;;;;;;0.93;100.00;99652.00;4718595;30;20057;-78
2022/01/08 19:46:53;;;;;;;3.58;2.22;;;;;;;0.98;100.00;99667.41;4753317;30;20036;-78
2022/01/08 19:49:18;;;;;;;2.92;2.20;;;;;;;1.00;100.00;99673.38;4722999;30;20032;-78
2022/01/08 19:51:43;;;;;;;2.38;2.00;;;;;;;0.92;100.00;99661.75;4748200;30;20363;-78
2022/01/08 19:54:09;;;;;;;2.35;2.10;;;;;;;0.90;100.00;99655.81;4738241;30;20045;-80
2022/01/08 19:56:34;;;;;;;2.38;2.03;;;;;;;0.87;100.00;99644.72;4738998;30;20072;-79
2022/01/08 19:58:59;;;;;;;3.15;2.28;;;;;;;0.88;100.00;99644.56;4746818;30;20044;-80
2022/01/08 20:01:25;;;;;;;3.72;2.10;;;;;;;1.02;100.00;99660.78;4726094;30;20480;-80
2022/01/08 20:03:52;;;;;;;3.85;2.90;;;;;;;0.92;100.00;99650.34;4737297;30;20036;-79
2022/01/08 20:06:19;;;;;;;2.88;2.50;;;;;;;0.98;100.00;99654.97;4725467;30;20484;-79
2022/01/08 20:08:45;;;;;;;3.08;2.60;;;;;;;0.88;100.00;99651.66;4741882;30;20113;-81
2022/01/08 20:11:11;;;;;;;2.88;2.17;;;;;;;0.80;100.00;99630.50;4755616;30;20037;-80
2022/01/08 20:13:37;;;;;;;2.65;2.45;;;;;;;0.85;100.00;99636.09;4737850;30;20048;-79
2022/01/08 20:16:02;;;;;;;2.65;2.38;;;;;;;0.68;100.00;99612.28;4746352;30;20033;-81
2022/01/08 20:18:27;;;;;;;3.20;2.63;;;;;;;0.57;100.00;99602.00;4747088;30;20681;-80
2022/01/08 20:20:53;;;;;;;2.78;2.50;;;;;;;0.82;100.00;99636.44;4736869;30;20037;-79
2022/01/08 20:23:18;;;;;;;4.53;3.08;;;;;;;0.60;100.00;99608.81;4724751;30;20055;-79
2022/01/08 20:25:44;;;;;;;3.03;2.72;;;;;;;0.67;100.00;99621.22;4738095;30;20124;-79
2022/01/08 20:28:09;;;;;;;4.45;3.72;;;;;;;0.76;100.00;99637.91;4739266;30;20043;-80
2022/01/08 20:30:35;;;;;;;4.50;3.75;;;;;;;0.83;100.00;99638.94;4742969;30;20092;-80
2022/01/08 20:33:00;;;;;;;5.30;4.50;;;;;;;0.80;100.00;99646.38;4741772;30;20464;-80
2022/01/08 20:35:29;;;;;;;5.68;4.28;;;;;;;0.82;100.00;99625.84;4738563;30;20033;-80
2022/01/08 20:37:59;;;;;;;6.05;5.53;;;;;;;0.96;100.00;99643.75;4750008;30;20441;-80
2022/01/08 20:40:28;;;;;;;7.18;6.47;;;;;;;0.86;100.00;99614.78;4753806;30;20044;-79
2022/01/08 20:42:53;;;;;;;7.18;6.45;;;;;;;1.03;100.00;99631.50;4736594;30;20044;-78
2022/01/08 20:45:19;;;;;;;7.32;6.43;;;;;;;0.93;100.00;99614.94;4735638;30;20057;-80
2022/01/08 20:47:44;;;;;;;8.60;7.18;;;;;;;0.81;100.00;99597.72;4738559;30;20040;-80
2022/01/08 20:50:10;;;;;;;7.43;6.60;;;;;;;0.88;100.00;99615.41;4751089;30;20391;-80
2022/01/08 20:52:35;;;;;;;9.10;7.72;;;;;;;1.02;100.00;99626.34;4737129;30;20039;-79
2022/01/08 20:55:01;;;;;;;8.80;7.38;;;;;;;1.08;100.00;99628.31;4746355;30;20091;-80
2022/01/08 20:57:26;;;;;;;8.98;7.53;;;;;;;1.03;100.00;99626.19;4756270;30;20037;-80
2022/01/08 20:59:51;;;;;;;9.48;7.90;;;;;;;1.02;100.00;99623.69;4732900;30;20116;-80
2022/01/08 21:02:18;;;;;;;11.52;7.90;;;;;;;0.91;100.00;99615.09;4747146;30;20036;-78
2022/01/08 21:04:44;;;;;;;11.07;9.10;;;;;;;0.87;100.00;99608.47;4744059;30;20444;-78
2022/01/08 21:07:09;;;;;;;11.48;9.23;;;;;;;1.06;100.00;99627.66;4741105;30;20075;-80
2022/01/08 21:09:35;;;;;;;10.90;9.02;;;;;;;1.10;100.00;99636.94;4738303;30;20115;-79
2022/01/08 21:12:00;;;;;;;9.77;7.82;;;;;;;1.00;100.00;99631.81;4750359;30;20051;-80
2022/01/08 21:14:25;;;;;;;9.30;8.35;;;;;;;1.15;100.00;99650.50;4739103;30;20102;-79
2022/01/08 21:16:51;;;;;;;9.55;7.90;;;;;;;0.89;100.00;99593.25;4752035;30;20036;-79
2022/01/08 21:19:17;;;;;;;8.68;7.28;;;;;;;1.16;100.00;99630.97;4749138;30;20044;-80
2022/01/08 21:21:43;;;;;;;7.10;6.40;;;;;;;1.25;100.00;99645.03;4738986;30;20044;-78
2022/01/08 21:24:08;;;;;;;8.10;7.25;;;;;;;1.25;100.00;99637.91;4736609;30;20032;-80
2022/01/08 21:26:34;;;;;;;7.50;6.80;;;;;;;1.21;100.00;99625.16;4742672;30;20055;-78
2022/01/08 21:28:59;;;;;;;8.75;7.53;;;;;;;1.23;100.00;99618.72;4708049;30;20037;-79
2022/01/08 21:31:25;;;;;;;8.45;7.55;;;;;;;1.31;100.00;99623.16;4745157;30;20047;-78
2022/01/08 21:33:51;;;;;;;8.93;8.02;;;;;;;1.13;100.00;99602.16;4746597;30;20124;-80
2022/01/08 21:36:17;;;;;;;7.18;6.47;;;;;;;1.14;100.00;99595.88;4749154;30;20080;-83
2022/01/08 21:43:53;;;;;;;7.28;6.57;;;;;;;1.36;100.00;99624.31;5217390;24;20074;-81
2022/01/08 21:46:18;;;;;;;6.72;6.13;;;;;;;0.09;100.00;99420.25;4773255;30;20039;-83
2022/01/08 21:48:44;;;;;;;6.47;5.30;;;;;;;0.26;100.00;99453.63;4771986;30;20043;-82
2022/01/08 21:51:10;;;;;;;6.13;5.53;;;;;;;-0.04;100.00;99410.97;4776764;30;20080;-83
2022/01/08 21:53:36;;;;;;;6.93;6.07;;;;;;;-0.04;100.00;99410.97;4777008;30;20032;-83
2022/01/08 21:56:01;;;;;;;5.78;5.03;;;;;;;-0.27;100.00;99384.38;4770621;30;20080;-83
2022/01/08 21:58:27;;;;;;;5.30;4.80;;;;;;;-0.03;100.00;99427.69;4776464;30;20012;-84
2022/01/08 22:00:53;;;;;;;5.07;4.53;;;;;;;1.15;100.00;99613.41;4776305;30;20023;-85
2022/01/08 22:03:18;;;;;;;7.20;5.00;;;;;;;1.11;100.00;99596.19;4776884;30;20028;-82
2022/01/08 22:10:54;;;;;;;4.90;4.40;;;;;;;-0.61;100.00;99360.72;5581966;24;20257;-81
2022/01/08 22:13:20;;;;;;;5.72;5.05;;;;;;;-0.43;100.00;99386.16;4774216;30;20079;-81
2022/01/08 22:15:45;;;;;;;6.20;5.50;;;;;;;-0.10;100.00;99432.81;4776507;30;20035;-83
2022/01/08 22:18:11;;;;;;;7.40;5.90;;;;;;;-0.43;100.00;99360.59;4775760;30;20013;-82
2022/01/08 22:20:37;;;;;;;5.93;5.22;;;;;;;-0.33;100.00;99370.97;4774501;30;20044;-84
2022/01/08 22:23:03;;;;;;;4.82;4.35;;;;;;;0.96;100.00;99574.03;4776657;30;20019;-83
2022/01/08 22:28:04;;;;;;;6.05;4.50;;;;;;;0.96;100.00;99571.38;5403172;24;20095;-80
2022/01/08 22:30:30;;;;;;;4.18;3.70;;;;;;;0.94;100.00;99560.97;4753232;30;20131;-80
2022/01/08 22:32:56;;;;;;;4.63;2.70;;;;;;;0.79;100.00;99550.22;4739212;30;20033;-81
2022/01/08 22:35:21;;;;;;;2.92;2.60;;;;;;;1.07;100.00;99585.13;4756916;30;20122;-81
2022/01/08 22:37:46;;;;;;;4.18;2.97;;;;;;;0.98;100.00;99574.69;4749630;30;20032;-81
2022/01/08 22:40:16;;;;;;;3.85;3.28;;;;;;;0.99;100.00;99585.13;4741761;30;20051;-81
2022/01/08 22:42:42;;;;;;;2.83;2.10;;;;;;;0.89;100.00;99573.88;4769711;30;20786;-80
2022/01/08 22:45:07;;;;;;;2.20;2.00;;;;;;;0.69;100.00;99544.25;4752351;30;20086;-81
2022/01/08 22:47:33;;;;;;;2.13;1.73;;;;;;;0.93;100.00;99576.03;4765883;30;20041;-81
2022/01/08 22:49:58;;;;;;;2.10;1.63;;;;;;;0.86;100.00;99577.69;4754988;30;20037;-80
2022/01/08 22:52:23;;;;;;;2.05;1.80;;;;;;;0.90;100.00;99573.72;4738373;30;20033;-80
2022/01/08 22:54:52;;;;;;;2.25;1.90;;;;;;;0.95;100.00;99575.84;4751917;30;20028;-80
2022/01/08 22:57:19;;;;;;;2.00;1.67;;;;;;;0.90;100.00;99554.34;4739025;30;20037;-81
2022/01/08 22:59:45;;;;;;;2.20;2.00;;;;;;;1.07;100.00;99573.69;4739431;30;20032;-81
2022/01/08 23:02:10;;;;;;;1.90;1.65;;;;;;;1.00;100.00;99578.84;4764240;30;20055;-81
2022/01/08 23:04:37;;;;;;;2.67;2.20;;;;;;;1.05;100.00;99573.03;4755050;30;20063;-82
2022/01/08 23:07:03;;;;;;;2.20;1.85;;;;;;;0.99;100.00;99571.03;4757033;30;20031;-81
2022/01/08 23:09:30;;;;;;;2.63;2.10;;;;;;;0.97;100.00;99570.41;4757097;30;20040;-81
2022/01/08 23:11:56;;;;;;;2.85;2.30;;;;;;;0.73;100.00;99519.13;4757342;30;20023;-82
2022/01/08 23:14:21;;;;;;;3.78;2.45;;;;;;;1.04;100.00;99572.22;4756697;30;20131;-82
2022/01/08 23:16:47;;;;;;;3.13;2.33;;;;;;;1.01;100.00;99574.38;4757366;30;20117;-82
2022/01/08 23:19:12;;;;;;;2.45;2.25;;;;;;;0.98;100.00;99553.50;4757371;30;20048;-82
2022/01/08 23:21:40;;;;;;;2.75;2.33;;;;;;;1.03;100.00;99564.44;4757840;30;20021;-82
2022/01/08 23:24:05;;;;;;;4.53;2.70;;;;;;;0.96;100.00;99544.91;4756400;30;20040;-82
2022/01/08 23:26:31;;;;;;;2.67;2.03;;;;;;;0.93;100.00;99557.50;4757097;30;20056;-81
2022/01/08 23:28:56;;;;;;;3.00;1.85;;;;;;;0.77;100.00;99530.22;4757568;30;20126;-82
2022/01/08 23:31:22;;;;;;;1.88;1.60;;;;;;;0.97;100.00;99567.75;4761611;30;20044;-82
2022/01/08 23:33:47;;;;;;;1.88;1.70;;;;;;;0.92;100.00;99571.72;4760551;30;20084;-82
2022/01/08 23:36:12;;;;;;;2.53;1.70;;;;;;;0.94;100.00;99571.56;4760157;30;20272;-81
2022/01/08 23:38:38;;;;;;;1.95;1.50;;;;;;;0.89;100.00;99571.22;4775120;30;20024;-81
2022/01/08 23:41:03;;;;;;;1.98;1.55;;;;;;;0.75;100.00;99546.25;4760840;30;20028;-82
2022/01/08 23:43:29;;;;;;;1.60;1.50;;;;;;;0.70;100.00;99532.69;4773460;30;20033;-82
2022/01/08 23:45:56;;;;;;;2.10;1.73;;;;;;;0.67;100.00;99540.97;4759749;30;20033;-81
2022/01/08 23:48:26;;;;;;;1.67;1.55;;;;;;;0.86;100.00;99574.19;4758986;30;20051;-82
2022/01/08 23:50:58;;;;;;;1.63;1.42;;;;;;;0.98;100.00;99556.16;4760155;30;20084;-82
2022/01/08 23:53:24;;;;;;;1.80;1.45;;;;;;;0.72;100.00;99520.09;4759342;30;20028;-81
2022/01/08 23:55:49;;;;;;;1.65;1.55;;;;;;;0.79;100.00;99546.72;4758458;30;20063;-81
2022/01/08 23:58:15;;;;;;;3.47;1.90;;;;;;;0.83;100.00;99543.59;4735941;30;20105;-81
